Time;durP1;ratioP1;P1;durP2;ratioP2;P2;SDS_P1;SDS_P2;PMS_P1;PMS_P2;Temp;Humidity;BMP_temperature;BMP_pressure;BME280_temperature;BME280_humidity;BME280_pressure;Samples;Min_cycle;Max_cycle;Signal;HPM_P1;HPM_P2
2024/01/13 00:01:38;;;;;;;23.75;11.38;;;;;;;;;;5040261;28;20045;-68
2024/01/13 00:04:06;;;;;;;25.90;10.80;;;;;;;;;;5049563;28;20048;-68
2024/01/13 00:06:32;;;;;;;24.38;10.85;;;;;;;;;;5044942;28;20321;-68
2024/01/13 00:08:59;;;;;;;26.15;10.85;;;;;;;;;;5050598;28;20497;-68
2024/01/13 00:11:25;;;;;;;27.48;10.65;;;;;;;;;;5051416;28;20044;-68
2024/01/13 00:13:51;;;;;;;25.48;11.88;;;;;;;;;;5051608;28;20057;-68
2024/01/13 00:16:18;;;;;;;26.75;10.75;;;;;;;;;;5049822;28;20045;-68
2024/01/13 00:18:44;;;;;;;25.63;11.70;;;;;;;;;;5043323;28;20047;-68
2024/01/13 00:21:12;;;;;;;24.60;10.65;;;;;;;;;;5048912;28;20049;-68
2024/01/13 00:23:38;;;;;;;25.00;10.68;;;;;;;;;;5040113;28;20052;-68
2024/01/13 00:26:05;;;;;;;23.95;10.35;;;;;;;;;;5049033;28;20325;-68
2024/01/13 00:28:31;;;;;;;26.05;11.07;;;;;;;;;;5044985;28;20051;-68
2024/01/13 00:30:57;;;;;;;27.65;11.68;;;;;;;;;;5041433;28;20049;-68
2024/01/13 00:33:24;;;;;;;27.45;11.48;;;;;;;;;;5047873;28;20045;-68
2024/01/13 00:35:50;;;;;;;27.15;11.07;;;;;;;;;;5046873;28;20041;-68
2024/01/13 00:38:18;;;;;;;21.73;10.82;;;;;;;;;;5042585;28;20052;-68
2024/01/13 00:40:44;;;;;;;29.17;10.77;;;;;;;;;;5050640;28;20119;-68
2024/01/13 00:43:11;;;;;;;24.65;11.05;;;;;;;;;;5040381;28;20049;-68
2024/01/13 00:45:37;;;;;;;24.60;11.15;;;;;;;;;;5037781;28;20047;-68
2024/01/13 00:48:04;;;;;;;24.33;10.43;;;;;;;;;;5033150;28;20468;-68
2024/01/13 00:50:32;;;;;;;25.20;11.00;;;;;;;;;;5044455;28;20545;-68
2024/01/13 00:52:59;;;;;;;24.23;9.65;;;;;;;;;;5035209;28;20050;-68
2024/01/13 00:55:27;;;;;;;24.67;10.18;;;;;;;;;;5049669;28;20067;-68
2024/01/13 00:57:53;;;;;;;23.65;9.70;;;;;;;;;;5042741;28;20523;-68
2024/01/13 01:00:19;;;;;;;21.63;9.25;;;;;;;;;;5046484;28;20042;-68
2024/01/13 01:02:46;;;;;;;21.48;10.05;;;;;;;;;;5039643;28;20055;-68
2024/01/13 01:05:12;;;;;;;23.88;10.80;;;;;;;;;;5049751;28;20052;-68
2024/01/13 01:07:39;;;;;;;21.45;10.02;;;;;;;;;;5048622;28;20048;-68
2024/01/13 01:10:06;;;;;;;22.98;10.05;;;;;;;;;;5048127;28;20488;-68
2024/01/13 01:12:33;;;;;;;20.88;10.18;;;;;;;;;;5044890;28;20056;-68
2024/01/13 01:15:00;;;;;;;22.35;9.77;;;;;;;;;;5050356;28;20053;-68
2024/01/13 01:17:26;;;;;;;26.55;10.32;;;;;;;;;;5048665;28;20132;-68
2024/01/13 01:19:53;;;;;;;26.27;11.18;;;;;;;;;;5049571;28;20132;-68
2024/01/13 01:22:20;;;;;;;26.55;11.07;;;;;;;;;;5048353;28;20127;-68
2024/01/13 01:24:46;;;;;;;20.02;9.25;;;;;;;;;;5050865;28;20313;-68
2024/01/13 01:27:13;;;;;;;26.45;10.80;;;;;;;;;;5048727;28;20046;-68
2024/01/13 01:29:40;;;;;;;19.90;9.80;;;;;;;;;;5050200;28;20045;-68
2024/01/13 01:32:07;;;;;;;21.17;10.40;;;;;;;;;;5040908;28;20417;-68
2024/01/13 01:34:33;;;;;;;23.98;10.35;;;;;;;;;;5050243;28;20053;-68
2024/01/13 01:36:59;;;;;;;26.02;10.25;;;;;;;;;;5048768;28;20520;-68
2024/01/13 01:39:26;;;;;;;24.90;10.90;;;;;;;;;;5049577;28;20048;-68
2024/01/13 01:41:52;;;;;;;23.75;10.18;;;;;;;;;;5042375;28;20365;-68
2024/01/13 01:44:19;;;;;;;22.25;9.93;;;;;;;;;;5040450;28;20130;-68
2024/01/13 01:46:47;;;;;;;26.10;9.80;;;;;;;;;;5041903;28;20053;-68
2024/01/13 01:49:14;;;;;;;23.38;9.90;;;;;;;;;;5032490;28;20148;-68
2024/01/13 01:51:40;;;;;;;27.98;11.18;;;;;;;;;;5044844;28;20488;-68
2024/01/13 01:54:07;;;;;;;26.38;10.20;;;;;;;;;;5048452;28;20049;-68
2024/01/13 01:56:35;;;;;;;23.88;9.52;;;;;;;;;;5043751;28;20060;-68
2024/01/13 01:59:02;;;;;;;22.50;10.02;;;;;;;;;;5047527;28;20045;-68
2024/01/13 02:01:30;;;;;;;20.00;9.23;;;;;;;;;;5043682;28;20489;-68
2024/01/13 02:03:58;;;;;;;21.00;9.80;;;;;;;;;;5033475;28;20129;-68
2024/01/13 02:06:24;;;;;;;22.77;8.93;;;;;;;;;;5042994;28;20049;-68
2024/01/13 02:08:51;;;;;;;21.90;9.27;;;;;;;;;;5041024;28;20133;-68
2024/01/13 02:11:18;;;;;;;20.20;9.15;;;;;;;;;;5031225;28;20512;-68
2024/01/13 02:13:45;;;;;;;21.75;9.90;;;;;;;;;;5037935;28;20051;-68
2024/01/13 02:16:11;;;;;;;21.00;9.32;;;;;;;;;;5048970;28;20440;-68
2024/01/13 02:18:38;;;;;;;24.83;10.35;;;;;;;;;;5051904;28;20049;-68
2024/01/13 02:21:06;;;;;;;26.00;10.82;;;;;;;;;;5044739;28;20067;-68
2024/01/13 02:23:34;;;;;;;23.73;9.98;;;;;;;;;;5040088;28;20045;-68
2024/01/13 02:26:00;;;;;;;23.75;9.82;;;;;;;;;;5052079;28;20048;-68
2024/01/13 02:28:27;;;;;;;25.35;10.40;;;;;;;;;;5053322;28;20055;-68
2024/01/13 02:30:53;;;;;;;23.08;9.85;;;;;;;;;;5045262;28;20420;-68
2024/01/13 02:33:19;;;;;;;23.88;10.88;;;;;;;;;;5052714;28;20045;-68
2024/01/13 02:35:46;;;;;;;22.98;10.43;;;;;;;;;;5045007;28;20045;-68
2024/01/13 02:38:12;;;;;;;22.88;9.77;;;;;;;;;;5052198;28;20397;-68
2024/01/13 02:40:40;;;;;;;23.48;10.05;;;;;;;;;;5040530;28;20497;-68
2024/01/13 02:43:06;;;;;;;29.05;10.18;;;;;;;;;;5051515;28;20163;-68
2024/01/13 02:45:33;;;;;;;20.88;9.25;;;;;;;;;;5052315;28;20045;-68
2024/01/13 02:48:01;;;;;;;19.85;9.35;;;;;;;;;;5044162;28;20057;-68
2024/01/13 02:50:27;;;;;;;22.10;10.80;;;;;;;;;;5046910;28;20049;-68
2024/01/13 02:52:54;;;;;;;22.08;10.27;;;;;;;;;;5045338;28;20227;-68
2024/01/13 02:55:20;;;;;;;23.08;10.48;;;;;;;;;;5044522;28;20500;-68
2024/01/13 02:57:50;;;;;;;21.50;9.50;;;;;;;;;;5044623;28;20048;-68
2024/01/13 03:00:17;;;;;;;22.85;9.80;;;;;;;;;;5045218;28;20053;-68
2024/01/13 03:02:43;;;;;;;21.60;9.50;;;;;;;;;;5046339;28;20073;-68
2024/01/13 03:05:10;;;;;;;23.25;10.35;;;;;;;;;;5051591;28;21165;-68
2024/01/13 03:07:36;;;;;;;23.65;9.43;;;;;;;;;;5037943;28;20440;-68
2024/01/13 03:10:03;;;;;;;23.02;9.60;;;;;;;;;;5035270;28;20041;-68
2024/01/13 03:12:29;;;;;;;23.83;9.77;;;;;;;;;;5052810;28;20041;-68
2024/01/13 03:14:58;;;;;;;21.02;10.13;;;;;;;;;;5051624;28;20044;-68
2024/01/13 03:17:24;;;;;;;22.58;9.77;;;;;;;;;;5051495;28;20041;-68
2024/01/13 03:19:51;;;;;;;23.52;10.00;;;;;;;;;;5044611;28;20049;-68
2024/01/13 03:22:17;;;;;;;24.35;10.52;;;;;;;;;;5052028;28;20045;-68
2024/01/13 03:24:43;;;;;;;28.30;10.55;;;;;;;;;;5052208;28;20056;-68
2024/01/13 03:27:10;;;;;;;23.90;9.93;;;;;;;;;;5047750;28;20277;-68
2024/01/13 03:29:36;;;;;;;23.25;9.55;;;;;;;;;;5045884;28;20423;-68
2024/01/13 03:32:04;;;;;;;25.27;10.10;;;;;;;;;;5052077;28;20049;-68
2024/01/13 03:34:30;;;;;;;22.52;9.27;;;;;;;;;;5048906;28;20053;-68
2024/01/13 03:36:57;;;;;;;21.92;8.98;;;;;;;;;;5048808;28;20045;-68
2024/01/13 03:39:23;;;;;;;24.90;9.95;;;;;;;;;;5049265;28;20048;-68
2024/01/13 03:41:50;;;;;;;28.83;10.50;;;;;;;;;;5048863;28;20158;-68
2024/01/13 03:44:16;;;;;;;23.38;9.65;;;;;;;;;;5051525;28;20051;-68
2024/01/13 03:46:43;;;;;;;19.25;8.82;;;;;;;;;;5051386;28;20055;-68
2024/01/13 03:49:10;;;;;;;21.95;9.20;;;;;;;;;;5044100;28;20047;-68
2024/01/13 03:51:37;;;;;;;23.92;10.15;;;;;;;;;;5051951;28;20051;-68
2024/01/13 03:54:03;;;;;;;20.90;9.23;;;;;;;;;;5051430;28;20503;-68
2024/01/13 03:56:30;;;;;;;23.40;9.13;;;;;;;;;;5040833;28;20394;-68
2024/01/13 03:58:56;;;;;;;22.58;9.77;;;;;;;;;;5047978;28;20076;-68
2024/01/13 04:01:22;;;;;;;20.73;9.35;;;;;;;;;;5047798;28;20049;-68
2024/01/13 04:03:49;;;;;;;24.58;10.48;;;;;;;;;;5041855;28;20048;-68
2024/01/13 04:06:16;;;;;;;20.50;9.40;;;;;;;;;;5034923;28;20045;-68
2024/01/13 04:08:44;;;;;;;22.88;9.43;;;;;;;;;;5051056;28;20045;-68
2024/01/13 04:11:10;;;;;;;21.10;9.98;;;;;;;;;;5042249;28;20103;-68
2024/01/13 04:13:37;;;;;;;25.80;9.75;;;;;;;;;;5046264;28;20511;-68
2024/01/13 04:16:03;;;;;;;23.77;9.75;;;;;;;;;;5042778;28;20045;-68
2024/01/13 04:18:30;;;;;;;21.13;9.07;;;;;;;;;;5050603;28;20041;-68
2024/01/13 04:20:56;;;;;;;23.48;9.40;;;;;;;;;;5051354;28;20048;-68
2024/01/13 04:23:24;;;;;;;21.60;8.93;;;;;;;;;;5051543;28;20536;-68
2024/01/13 04:25:50;;;;;;;26.50;10.10;;;;;;;;;;5042232;28;20135;-68
2024/01/13 04:28:17;;;;;;;22.40;9.77;;;;;;;;;;5050831;28;20423;-68
2024/01/13 04:30:43;;;;;;;26.52;9.73;;;;;;;;;;5051452;28;20135;-68
2024/01/13 04:33:09;;;;;;;20.73;8.75;;;;;;;;;;5042254;28;20052;-68
2024/01/13 04:35:36;;;;;;;25.35;9.70;;;;;;;;;;5044986;28;20057;-68
2024/01/13 04:38:02;;;;;;;25.52;9.90;;;;;;;;;;5050445;28;20075;-68
2024/01/13 04:40:36;;;;;;;23.13;9.80;;;;;;;;;;5050947;28;20060;-68
2024/01/13 04:43:02;;;;;;;24.85;9.57;;;;;;;;;;5043103;28;20159;-68
2024/01/13 04:45:29;;;;;;;24.55;9.98;;;;;;;;;;5047148;28;20489;-68
2024/01/13 04:47:55;;;;;;;25.48;9.55;;;;;;;;;;5040586;28;20057;-68
2024/01/13 04:50:22;;;;;;;24.20;9.70;;;;;;;;;;5050281;28;20045;-68
2024/01/13 04:52:48;;;;;;;22.10;9.07;;;;;;;;;;5044426;28;20052;-68
2024/01/13 04:55:14;;;;;;;25.55;9.57;;;;;;;;;;5042325;28;20132;-68
2024/01/13 04:57:42;;;;;;;21.30;8.93;;;;;;;;;;5042475;28;20048;-68
2024/01/13 05:00:09;;;;;;;21.38;9.07;;;;;;;;;;5037435;28;20061;-68
2024/01/13 05:02:35;;;;;;;25.17;9.95;;;;;;;;;;5044388;28;20053;-67
2024/01/13 05:05:02;;;;;;;22.27;9.82;;;;;;;;;;5050764;28;20055;-68
2024/01/13 05:07:28;;;;;;;20.45;8.32;;;;;;;;;;5038080;28;20057;-68
2024/01/13 05:09:54;;;;;;;20.88;9.05;;;;;;;;;;5033245;28;20056;-68
2024/01/13 05:12:21;;;;;;;22.05;8.77;;;;;;;;;;5046632;28;20545;-68
2024/01/13 05:14:48;;;;;;;22.63;9.65;;;;;;;;;;5039328;28;20047;-68
2024/01/13 05:17:15;;;;;;;21.42;9.52;;;;;;;;;;5046484;28;20095;-68
2024/01/13 05:19:41;;;;;;;23.38;9.07;;;;;;;;;;5033961;28;20041;-68
2024/01/13 05:22:08;;;;;;;24.27;9.80;;;;;;;;;;5041609;28;20042;-67
2024/01/13 05:24:34;;;;;;;29.23;12.18;;;;;;;;;;5050583;28;20045;-68
2024/01/13 05:27:00;;;;;;;25.15;9.77;;;;;;;;;;5041575;28;20049;-68
2024/01/13 05:29:27;;;;;;;25.33;9.57;;;;;;;;;;5047116;28;20524;-68
2024/01/13 05:31:54;;;;;;;23.67;9.57;;;;;;;;;;5033097;28;20045;-68
2024/01/13 05:34:21;;;;;;;23.02;9.07;;;;;;;;;;5050523;28;20040;-68
2024/01/13 05:36:47;;;;;;;22.17;8.98;;;;;;;;;;5049975;28;20041;-68
2024/01/13 05:39:14;;;;;;;25.77;9.27;;;;;;;;;;5048214;28;20059;-68
2024/01/13 05:41:40;;;;;;;18.77;8.65;;;;;;;;;;5040421;28;20136;-68
2024/01/13 05:44:07;;;;;;;22.65;9.63;;;;;;;;;;5041405;28;20136;-68
2024/01/13 05:46:33;;;;;;;20.45;8.85;;;;;;;;;;5036353;28;20042;-68
2024/01/13 05:49:01;;;;;;;25.15;9.35;;;;;;;;;;5039471;28;20060;-68
2024/01/13 05:51:28;;;;;;;24.23;9.88;;;;;;;;;;5050524;28;20049;-68
2024/01/13 05:53:54;;;;;;;20.90;8.95;;;;;;;;;;5053736;28;20041;-68
2024/01/13 05:56:21;;;;;;;20.70;9.00;;;;;;;;;;5053408;28;20041;-68
2024/01/13 05:58:47;;;;;;;21.92;9.13;;;;;;;;;;5046984;28;20045;-68
2024/01/13 06:01:13;;;;;;;21.92;10.15;;;;;;;;;;5054249;28;20053;-68
2024/01/13 06:03:40;;;;;;;21.67;10.48;;;;;;;;;;5053671;28;20045;-68
2024/01/13 06:06:09;;;;;;;23.50;10.40;;;;;;;;;;5053841;28;20147;-68
2024/01/13 06:08:35;;;;;;;24.10;9.93;;;;;;;;;;5053684;28;20419;-68
2024/01/13 06:11:02;;;;;;;22.38;9.93;;;;;;;;;;5053847;28;20051;-68
2024/01/13 06:13:29;;;;;;;21.20;9.05;;;;;;;;;;5047430;28;20053;-68
2024/01/13 06:15:54;;;;;;;22.83;9.55;;;;;;;;;;5053300;28;20068;-68
2024/01/13 06:18:20;;;;;;;22.30;9.40;;;;;;;;;;5052962;28;20049;-68
2024/01/13 06:20:47;;;;;;;22.60;9.45;;;;;;;;;;5054110;28;20483;-68
2024/01/13 06:23:15;;;;;;;24.73;9.70;;;;;;;;;;5050743;28;20053;-68
2024/01/13 06:25:41;;;;;;;25.52;10.00;;;;;;;;;;5042055;28;20041;-68
2024/01/13 06:28:07;;;;;;;24.40;9.93;;;;;;;;;;5050627;28;20059;-68
2024/01/13 06:30:34;;;;;;;24.83;9.88;;;;;;;;;;5040264;28;20125;-68
2024/01/13 06:33:01;;;;;;;19.52;9.60;;;;;;;;;;5038986;28;20045;-68
2024/01/13 06:35:27;;;;;;;24.08;9.80;;;;;;;;;;5040011;28;20067;-68
2024/01/13 06:37:54;;;;;;;24.73;10.45;;;;;;;;;;5046450;28;20416;-67
2024/01/13 06:40:21;;;;;;;23.52;9.65;;;;;;;;;;5053912;28;20051;-68
2024/01/13 06:42:48;;;;;;;24.30;10.52;;;;;;;;;;5053204;28;20040;-68
2024/01/13 06:45:14;;;;;;;22.67;9.68;;;;;;;;;;5046642;28;20148;-68
2024/01/13 06:47:40;;;;;;;19.00;8.65;;;;;;;;;;5045255;28;20049;-68
2024/01/13 06:50:06;;;;;;;22.98;9.90;;;;;;;;;;5043576;28;20131;-67
2024/01/13 06:52:33;;;;;;;22.35;9.30;;;;;;;;;;5053382;28;20049;-68
2024/01/13 06:55:00;;;;;;;22.65;9.02;;;;;;;;;;5053572;28;20049;-68
2024/01/13 06:57:27;;;;;;;22.20;10.02;;;;;;;;;;5047710;28;20049;-67
2024/01/13 06:59:54;;;;;;;23.70;9.30;;;;;;;;;;5049120;28;20049;-68
2024/01/13 07:02:20;;;;;;;22.45;9.65;;;;;;;;;;5046984;28;20045;-67
2024/01/13 07:04:50;;;;;;;21.08;9.30;;;;;;;;;;5051910;28;20108;-68
2024/01/13 07:07:16;;;;;;;26.08;9.63;;;;;;;;;;5040353;28;20049;-68
2024/01/13 07:09:42;;;;;;;21.52;9.30;;;;;;;;;;5048557;28;20049;-68
2024/01/13 07:12:10;;;;;;;19.15;9.65;;;;;;;;;;5044446;28;20045;-68
2024/01/13 07:14:37;;;;;;;26.05;10.07;;;;;;;;;;5040351;28;20051;-68
2024/01/13 07:17:04;;;;;;;20.52;8.38;;;;;;;;;;5049962;28;20045;-68
2024/01/13 07:19:31;;;;;;;21.42;9.50;;;;;;;;;;5052414;28;20045;-68
2024/01/13 07:21:58;;;;;;;22.20;9.02;;;;;;;;;;5052765;28;20412;-68
2024/01/13 07:24:24;;;;;;;21.48;8.98;;;;;;;;;;5053196;28;20162;-68
2024/01/13 07:26:50;;;;;;;17.40;8.63;;;;;;;;;;5044315;28;20412;-68
2024/01/13 07:29:17;;;;;;;20.08;9.00;;;;;;;;;;5052052;28;20136;-68
2024/01/13 07:31:44;;;;;;;22.38;8.65;;;;;;;;;;5052462;28;20142;-68
2024/01/13 07:34:11;;;;;;;21.30;9.45;;;;;;;;;;5045782;28;20053;-68
2024/01/13 07:36:37;;;;;;;25.33;9.43;;;;;;;;;;5037944;28;20129;-68
2024/01/13 07:39:08;;;;;;;20.27;9.65;;;;;;;;;;5050057;28;20506;-68
2024/01/13 07:41:34;;;;;;;21.58;9.30;;;;;;;;;;5047745;28;20076;-68
2024/01/13 07:44:01;;;;;;;20.15;8.50;;;;;;;;;;5042044;28;20045;-68
2024/01/13 07:46:27;;;;;;;13.52;7.07;;;;;;;;;;5034336;28;20041;-68
2024/01/13 07:48:55;;;;;;;13.15;7.05;;;;;;;;;;5040522;28;20053;-68
2024/01/13 07:51:21;;;;;;;12.85;6.93;;;;;;;;;;5038044;28;20044;-68
2024/01/13 07:53:48;;;;;;;19.73;10.82;;;;;;;;;;5051846;28;20485;-68
2024/01/13 07:56:14;;;;;;;16.13;8.25;;;;;;;;;;5049679;28;20053;-68
2024/01/13 07:58:40;;;;;;;10.10;5.95;;;;;;;;;;5046761;28;20053;-67
2024/01/13 08:01:07;;;;;;;12.52;5.35;;;;;;;;;;5049890;28;20040;-68
2024/01/13 08:03:33;;;;;;;10.75;6.07;;;;;;;;;;5046200;28;20136;-67
2024/01/13 08:06:02;;;;;;;10.75;5.15;;;;;;;;;;5045013;28;20041;-67
2024/01/13 08:08:28;;;;;;;11.50;5.95;;;;;;;;;;5044315;28;20045;-67
2024/01/13 08:10:54;;;;;;;8.43;5.07;;;;;;;;;;5051194;28;20453;-67
2024/01/13 08:13:21;;;;;;;11.50;5.72;;;;;;;;;;5051726;28;20051;-67
2024/01/13 08:15:47;;;;;;;10.70;5.70;;;;;;;;;;5043035;28;20053;-67
2024/01/13 08:18:14;;;;;;;9.13;5.38;;;;;;;;;;5050587;28;20080;-67
2024/01/13 08:20:41;;;;;;;10.85;5.70;;;;;;;;;;5038501;28;20045;-67
2024/01/13 08:23:08;;;;;;;13.48;7.00;;;;;;;;;;5048821;28;20041;-70
2024/01/13 08:25:35;;;;;;;14.30;7.35;;;;;;;;;;5033389;28;20049;-67
2024/01/13 08:28:01;;;;;;;7.15;4.40;;;;;;;;;;5047746;28;20535;-67
2024/01/13 08:30:27;;;;;;;8.75;5.20;;;;;;;;;;5044508;28;20044;-67
2024/01/13 08:32:54;;;;;;;9.38;4.72;;;;;;;;;;5043531;28;20049;-68
2024/01/13 08:35:21;;;;;;;7.68;4.20;;;;;;;;;;5048495;28;20051;-67
2024/01/13 08:37:51;;;;;;;9.40;3.95;;;;;;;;;;5046337;28;20048;-67
2024/01/13 08:40:18;;;;;;;8.38;4.07;;;;;;;;;;5044663;28;20099;-67
2024/01/13 08:42:47;;;;;;;9.82;4.50;;;;;;;;;;5038951;28;20058;-67
2024/01/13 08:45:13;;;;;;;9.85;4.80;;;;;;;;;;5049957;28;20041;-67
2024/01/13 08:47:40;;;;;;;9.60;5.25;;;;;;;;;;5049499;28;20107;-67
2024/01/13 08:50:07;;;;;;;9.82;5.47;;;;;;;;;;5034504;28;20068;-67
2024/01/13 08:52:34;;;;;;;10.57;5.63;;;;;;;;;;5045111;28;20130;-67
2024/01/13 08:55:00;;;;;;;12.05;6.72;;;;;;;;;;5050437;28;20048;-67
2024/01/13 08:57:28;;;;;;;10.98;5.88;;;;;;;;;;5044848;28;20045;-67
2024/01/13 08:59:55;;;;;;;14.02;7.13;;;;;;;;;;5047825;28;20049;-67
2024/01/13 09:02:21;;;;;;;9.43;5.50;;;;;;;;;;5042901;28;20091;-67
2024/01/13 09:04:47;;;;;;;10.43;5.28;;;;;;;;;;5044710;28;20052;-67
2024/01/13 09:07:14;;;;;;;10.63;5.53;;;;;;;;;;5041820;28;20424;-67
2024/01/13 09:09:40;;;;;;;9.75;5.70;;;;;;;;;;5037962;28;20049;-66
2024/01/13 09:12:07;;;;;;;10.38;5.57;;;;;;;;;;5042285;28;20049;-67
2024/01/13 09:14:35;;;;;;;10.15;5.20;;;;;;;;;;5042972;28;20048;-67
2024/01/13 09:17:01;;;;;;;10.45;5.47;;;;;;;;;;5041187;28;20132;-68
2024/01/13 09:19:27;;;;;;;10.50;5.18;;;;;;;;;;5043653;28;20048;-67
2024/01/13 09:21:55;;;;;;;11.63;5.65;;;;;;;;;;5051790;28;20048;-69
2024/01/13 09:24:22;;;;;;;8.25;4.85;;;;;;;;;;5050869;28;20049;-67
2024/01/13 09:26:48;;;;;;;12.50;5.88;;;;;;;;;;5050211;28;20041;-67
2024/01/13 09:29:15;;;;;;;11.80;5.32;;;;;;;;;;5050702;28;20484;-67
2024/01/13 09:31:43;;;;;;;11.35;5.65;;;;;;;;;;5050806;28;20061;-66
2024/01/13 09:34:10;;;;;;;11.98;5.90;;;;;;;;;;5051549;28;20041;-68
2024/01/13 09:36:36;;;;;;;10.38;5.10;;;;;;;;;;5051121;28;20052;-68
2024/01/13 09:39:02;;;;;;;7.95;4.10;;;;;;;;;;5050733;28;20131;-68
2024/01/13 09:41:29;;;;;;;8.45;4.50;;;;;;;;;;5051069;28;20124;-68
2024/01/13 09:44:00;;;;;;;11.05;5.18;;;;;;;;;;5051110;28;20045;-68
2024/01/13 09:46:27;;;;;;;9.70;5.03;;;;;;;;;;5051082;28;20055;-68
2024/01/13 09:48:55;;;;;;;10.35;5.13;;;;;;;;;;5050616;28;20059;-66
2024/01/13 09:51:22;;;;;;;10.02;4.93;;;;;;;;;;5051120;28;20045;-67
2024/01/13 09:53:53;;;;;;;9.48;5.30;;;;;;;;;;5051129;28;20049;-67
2024/01/13 09:56:23;;;;;;;9.48;5.30;;;;;;;;;;5035297;28;20139;-68
2024/01/13 09:58:50;;;;;;;9.32;5.05;;;;;;;;;;5050676;28;20053;-67
2024/01/13 10:01:16;;;;;;;9.00;4.72;;;;;;;;;;5051334;28;20045;-66
2024/01/13 10:03:42;;;;;;;9.75;4.75;;;;;;;;;;5051335;28;20361;-67
2024/01/13 10:06:10;;;;;;;10.35;5.22;;;;;;;;;;5051186;28;20132;-68
2024/01/13 10:08:37;;;;;;;9.63;4.90;;;;;;;;;;5050776;28;20398;-67
2024/01/13 10:11:03;;;;;;;12.32;5.85;;;;;;;;;;5051113;28;20488;-68
2024/01/13 10:13:30;;;;;;;11.00;5.75;;;;;;;;;;5051049;28;20061;-67
2024/01/13 10:15:57;;;;;;;9.77;5.45;;;;;;;;;;5050359;28;20084;-67
2024/01/13 10:18:24;;;;;;;8.82;4.72;;;;;;;;;;5050523;28;20095;-68
2024/01/13 10:20:50;;;;;;;8.15;4.38;;;;;;;;;;5050891;28;20426;-66
2024/01/13 10:23:18;;;;;;;10.05;5.32;;;;;;;;;;5049089;28;20136;-68
2024/01/13 10:25:45;;;;;;;11.43;5.13;;;;;;;;;;5050567;28;20041;-69
2024/01/13 10:28:11;;;;;;;10.80;5.97;;;;;;;;;;5050593;28;20428;-68
2024/01/13 10:30:38;;;;;;;10.10;5.25;;;;;;;;;;5051281;28;20049;-69
2024/01/13 10:33:04;;;;;;;10.30;5.20;;;;;;;;;;5051253;28;20052;-67
2024/01/13 10:35:31;;;;;;;10.63;5.50;;;;;;;;;;5050294;28;20048;-67
2024/01/13 10:37:58;;;;;;;11.82;5.28;;;;;;;;;;5051041;28;20076;-68
2024/01/13 10:40:26;;;;;;;8.70;5.03;;;;;;;;;;5054092;28;20049;-67
2024/01/13 10:42:54;;;;;;;9.65;5.15;;;;;;;;;;5053863;28;20048;-66
2024/01/13 10:45:23;;;;;;;11.05;6.07;;;;;;;;;;5054146;28;20469;-67
2024/01/13 10:47:51;;;;;;;10.77;5.78;;;;;;;;;;5053695;28;20052;-67
2024/01/13 10:50:18;;;;;;;11.88;5.10;;;;;;;;;;5053930;28;20055;-67
2024/01/13 10:52:50;;;;;;;10.43;5.40;;;;;;;;;;5054260;28;20055;-68
2024/01/13 10:55:16;;;;;;;11.73;5.78;;;;;;;;;;5054332;28;20045;-66
2024/01/13 10:57:46;;;;;;;9.90;5.25;;;;;;;;;;5053475;28;20055;-67
2024/01/13 11:00:13;;;;;;;10.15;4.68;;;;;;;;;;5053758;28;20055;-68
2024/01/13 11:02:40;;;;;;;9.57;5.07;;;;;;;;;;5053909;28;20135;-67
2024/01/13 11:05:08;;;;;;;10.07;5.47;;;;;;;;;;5053556;28;20052;-67
2024/01/13 11:07:34;;;;;;;9.77;5.35;;;;;;;;;;5053505;28;20084;-67
2024/01/13 11:10:02;;;;;;;10.00;5.18;;;;;;;;;;5053545;28;20055;-66
2024/01/13 11:12:30;;;;;;;12.57;5.85;;;;;;;;;;5053714;28;20081;-67
2024/01/13 11:15:03;;;;;;;12.48;5.88;;;;;;;;;;5053729;28;20544;-69
2024/01/13 11:17:30;;;;;;;9.15;5.32;;;;;;;;;;5053311;28;20090;-67
2024/01/13 11:19:56;;;;;;;12.15;6.80;;;;;;;;;;5053369;28;20111;-67
2024/01/13 11:22:29;;;;;;;15.65;7.40;;;;;;;;;;5053309;28;20087;-67
2024/01/13 11:24:56;;;;;;;13.70;6.72;;;;;;;;;;5054538;28;20077;-67
2024/01/13 11:27:22;;;;;;;10.05;6.03;;;;;;;;;;5053418;28;20480;-67
2024/01/13 11:29:49;;;;;;;12.77;6.57;;;;;;;;;;5053952;28;20151;-67
2024/01/13 11:32:17;;;;;;;17.00;6.82;;;;;;;;;;5053757;28;20044;-68
2024/01/13 11:34:47;;;;;;;16.23;7.63;;;;;;;;;;5053480;28;20047;-67
2024/01/13 11:37:13;;;;;;;14.40;7.65;;;;;;;;;;5052535;28;20420;-67
2024/01/13 11:39:39;;;;;;;22.15;10.73;;;;;;;;;;5053119;28;20052;-66
2024/01/13 11:42:06;;;;;;;16.92;9.27;;;;;;;;;;5053041;28;20137;-68
2024/01/13 11:44:36;;;;;;;16.65;7.25;;;;;;;;;;5053110;28;20049;-67
2024/01/13 11:47:04;;;;;;;9.13;5.18;;;;;;;;;;5053139;28;20095;-67
2024/01/13 11:49:33;;;;;;;10.85;5.68;;;;;;;;;;5045956;28;20076;-67
2024/01/13 11:52:01;;;;;;;10.02;5.15;;;;;;;;;;5053343;28;20056;-67
2024/01/13 11:54:28;;;;;;;12.85;5.88;;;;;;;;;;5053111;28;20048;-67
2024/01/13 11:56:54;;;;;;;11.50;6.10;;;;;;;;;;5052410;28;20132;-68
2024/01/13 11:59:21;;;;;;;13.38;6.45;;;;;;;;;;5053111;28;20515;-67
2024/01/13 12:01:48;;;;;;;12.15;5.68;;;;;;;;;;5052923;28;20124;-68
2024/01/13 12:04:14;;;;;;;11.50;5.38;;;;;;;;;;5052656;28;20045;-67
2024/01/13 12:06:43;;;;;;;10.07;5.75;;;;;;;;;;5052661;28;20088;-67
2024/01/13 12:09:09;;;;;;;10.60;5.68;;;;;;;;;;5052250;28;20052;-68
2024/01/13 12:11:36;;;;;;;12.90;5.88;;;;;;;;;;5052567;28;20131;-67
2024/01/13 12:14:02;;;;;;;12.85;6.32;;;;;;;;;;5052366;28;20044;-67
2024/01/13 12:16:29;;;;;;;14.07;6.97;;;;;;;;;;5052135;28;20055;-67
2024/01/13 12:18:55;;;;;;;11.55;5.88;;;;;;;;;;5051830;28;20051;-67
2024/01/13 12:21:22;;;;;;;14.75;7.15;;;;;;;;;;5052609;28;20400;-68
2024/01/13 12:23:50;;;;;;;17.35;7.32;;;;;;;;;;5052545;28;20051;-66
2024/01/13 12:26:17;;;;;;;21.13;8.82;;;;;;;;;;5043865;28;20055;-67
2024/01/13 12:28:43;;;;;;;16.45;7.93;;;;;;;;;;5051895;28;20417;-67
2024/01/13 12:31:10;;;;;;;16.00;8.18;;;;;;;;;;5052216;28;20527;-67
2024/01/13 12:33:37;;;;;;;19.85;8.63;;;;;;;;;;5052326;28;20477;-66
2024/01/13 12:36:04;;;;;;;17.90;8.07;;;;;;;;;;5043521;28;20046;-68
2024/01/13 12:38:31;;;;;;;17.58;7.68;;;;;;;;;;5045828;28;20542;-66
2024/01/13 12:40:59;;;;;;;17.60;8.90;;;;;;;;;;5051950;28;20048;-68
2024/01/13 12:43:26;;;;;;;19.45;9.10;;;;;;;;;;5051869;28;20127;-68
2024/01/13 12:45:53;;;;;;;18.65;8.65;;;;;;;;;;5051288;28;20044;-67
2024/01/13 12:48:20;;;;;;;17.13;7.13;;;;;;;;;;5035307;28;20408;-66
2024/01/13 12:50:46;;;;;;;13.25;6.75;;;;;;;;;;5052136;28;20055;-68
2024/01/13 12:53:13;;;;;;;19.55;9.27;;;;;;;;;;5051732;28;20051;-67
2024/01/13 12:55:40;;;;;;;21.83;9.23;;;;;;;;;;5051951;28;20059;-67
2024/01/13 12:58:08;;;;;;;13.52;5.93;;;;;;;;;;5051409;28;20068;-67
2024/01/13 13:00:35;;;;;;;11.60;5.78;;;;;;;;;;5051266;28;20528;-68
2024/01/13 13:03:02;;;;;;;13.32;6.43;;;;;;;;;;5051807;28;20075;-67
2024/01/13 13:05:28;;;;;;;13.88;6.40;;;;;;;;;;5051592;28;20044;-67
2024/01/13 13:07:55;;;;;;;13.32;5.78;;;;;;;;;;5051103;28;20090;-67
2024/01/13 13:10:21;;;;;;;15.05;7.15;;;;;;;;;;5051583;28;20489;-67
2024/01/13 13:12:50;;;;;;;13.63;6.38;;;;;;;;;;5051106;28;20103;-67
2024/01/13 13:15:18;;;;;;;10.63;5.55;;;;;;;;;;5051501;28;20049;-67
2024/01/13 13:17:45;;;;;;;12.63;5.50;;;;;;;;;;5051877;28;20084;-67
2024/01/13 13:20:12;;;;;;;13.48;6.40;;;;;;;;;;5050541;28;20055;-67
2024/01/13 13:22:38;;;;;;;11.93;6.07;;;;;;;;;;5044644;28;20050;-67
2024/01/13 13:25:05;;;;;;;11.30;5.72;;;;;;;;;;5041213;28;20056;-67
2024/01/13 13:27:31;;;;;;;15.23;7.40;;;;;;;;;;5050191;28;20053;-68
2024/01/13 13:29:58;;;;;;;11.73;5.78;;;;;;;;;;5051376;28;20064;-67
2024/01/13 13:32:26;;;;;;;16.05;6.38;;;;;;;;;;5051292;28;20488;-67
2024/01/13 13:34:52;;;;;;;14.75;6.85;;;;;;;;;;5051200;28;20051;-65
2024/01/13 13:37:19;;;;;;;9.75;5.20;;;;;;;;;;5050904;28;20095;-67
2024/01/13 13:39:45;;;;;;;10.35;6.00;;;;;;;;;;5051112;28;20132;-68
2024/01/13 13:42:12;;;;;;;10.93;5.13;;;;;;;;;;5051039;28;20053;-67
2024/01/13 13:44:40;;;;;;;13.38;5.75;;;;;;;;;;5051306;28;20051;-66
2024/01/13 13:47:06;;;;;;;13.85;6.53;;;;;;;;;;5050919;28;20467;-66
2024/01/13 13:49:34;;;;;;;11.13;5.15;;;;;;;;;;5051351;28;20075;-68
2024/01/13 13:52:01;;;;;;;11.45;5.65;;;;;;;;;;5051105;28;20051;-67
2024/01/13 13:54:27;;;;;;;14.52;5.30;;;;;;;;;;5051509;28;20562;-67
2024/01/13 13:56:54;;;;;;;13.25;5.65;;;;;;;;;;5050606;28;20084;-67
2024/01/13 13:59:20;;;;;;;11.65;5.30;;;;;;;;;;5049630;28;20051;-68
2024/01/13 14:01:46;;;;;;;9.68;5.38;;;;;;;;;;5051047;28;20045;-67
2024/01/13 14:04:13;;;;;;;12.07;5.97;;;;;;;;;;5050943;28;20087;-67
2024/01/13 14:06:41;;;;;;;13.35;7.05;;;;;;;;;;5050941;28;20099;-67
2024/01/13 14:09:07;;;;;;;15.00;6.75;;;;;;;;;;5050611;28;20047;-68
2024/01/13 14:11:34;;;;;;;15.38;6.93;;;;;;;;;;5051136;28;20049;-67
2024/01/13 14:14:01;;;;;;;16.25;7.35;;;;;;;;;;5053625;28;20120;-67
2024/01/13 14:16:27;;;;;;;18.25;8.57;;;;;;;;;;5054953;28;20051;-67
2024/01/13 14:18:53;;;;;;;28.42;11.68;;;;;;;;;;5054879;28;20545;-68
2024/01/13 14:21:20;;;;;;;16.40;7.75;;;;;;;;;;5054016;28;20140;-68
2024/01/13 14:23:47;;;;;;;14.10;8.02;;;;;;;;;;5055017;28;20110;-68
2024/01/13 14:26:14;;;;;;;16.42;7.35;;;;;;;;;;5054626;28;20511;-68